createdAt,value
2019-04-23T00:01:23.840Z,10.69
2019-04-23T00:03:51.650Z,10.66
2019-04-23T00:06:43.903Z,10.52
2019-04-23T00:09:12.474Z,10.46
2019-04-23T00:11:41.520Z,10.49
2019-04-23T00:14:20.356Z,10.69
2019-04-23T00:16:50.924Z,10.55
2019-04-23T00:19:24.842Z,10.51
2019-04-23T00:22:16.705Z,10.58
2019-04-23T00:27:35.800Z,10.46
2019-04-23T00:30:00.982Z,10.50
2019-04-23T00:32:42.642Z,10.47
2019-04-23T00:35:23.597Z,10.43
2019-04-23T00:37:55.075Z,10.44
2019-04-23T00:43:15.443Z,10.43
2019-04-23T00:45:47.001Z,10.45
2019-04-23T00:48:28.008Z,10.44
2019-04-23T00:50:54.307Z,10.51
2019-04-23T00:53:43.786Z,10.57
2019-04-23T00:56:25.015Z,10.48
2019-04-23T01:01:19.685Z,10.51
2019-04-23T01:03:53.163Z,10.51
2019-04-23T01:06:27.180Z,10.51
2019-04-23T01:09:03.863Z,10.49
2019-04-23T01:11:39.380Z,10.54
2019-04-23T01:14:14.817Z,10.52
2019-04-23T01:16:42.534Z,10.57
2019-04-23T01:22:02.262Z,10.61
2019-04-23T01:25:03.094Z,10.56
2019-04-23T01:28:09.390Z,10.57
2019-04-23T01:30:46.882Z,10.55
2019-04-23T01:33:27.155Z,10.48
2019-04-23T01:36:12.446Z,10.55
2019-04-23T01:38:37.518Z,10.54
2019-04-23T01:41:09.698Z,10.49
2019-04-23T01:43:42.192Z,10.46
2019-04-23T01:46:12.868Z,10.45
2019-04-23T01:48:51.883Z,10.52
2019-04-23T01:51:34.416Z,10.52
2019-04-23T01:54:01.788Z,10.55
2019-04-23T01:56:34.062Z,10.46
2019-04-23T01:59:14.107Z,10.48
2019-04-23T02:04:25.005Z,10.40
2019-04-23T02:06:59.291Z,10.40
2019-04-23T02:09:58.979Z,10.35
2019-04-23T02:12:11.497Z,10.33
2019-04-23T02:14:51.577Z,10.30
2019-04-23T02:17:25.467Z,10.34
2019-04-23T02:20:05.052Z,10.31
2019-04-23T02:22:52.356Z,10.26
2019-04-23T02:25:31.698Z,10.23
2019-04-23T02:33:29.852Z,10.28
2019-04-23T02:35:55.921Z,10.38
2019-04-23T02:38:35.961Z,10.28
2019-04-23T02:43:56.306Z,10.32
2019-04-23T02:46:05.539Z,10.32
2019-04-23T02:54:10.191Z,10.25
2019-04-23T02:59:14.492Z,10.16
2019-04-23T03:04:35.725Z,10.19
2019-04-23T03:06:56.813Z,10.17
2019-04-23T03:09:36.773Z,10.17
2019-04-23T03:12:08.247Z,10.09
2019-04-23T03:14:41.720Z,10.09
2019-04-23T03:17:27.192Z,10.05
2019-04-23T03:20:21.873Z,10.09
2019-04-23T03:25:46.030Z,10.05
2019-04-23T03:28:49.362Z,10.04
2019-04-23T03:32:47.391Z,9.85
2019-04-23T03:43:46.917Z,9.47
2019-04-23T03:46:41.670Z,9.38
2019-04-23T03:48:57.469Z,9.30
2019-04-23T03:51:43.471Z,9.13
2019-04-23T03:57:12.558Z,9.18
2019-04-23T03:59:36.914Z,9.12
2019-04-23T04:02:20.889Z,9.06
2019-04-23T04:07:18.552Z,9.07
2019-04-23T04:09:47.856Z,8.99
2019-04-23T04:15:16.523Z,8.99
2019-04-23T04:18:03.990Z,9.05
2019-04-23T04:20:15.291Z,9.08
2019-04-23T04:25:37.456Z,9.18
2019-04-23T04:30:37.945Z,9.37
2019-04-23T04:33:38.608Z,9.59
2019-04-23T04:41:13.530Z,9.96
2019-04-23T04:43:55.857Z,10.24
2019-04-23T04:48:58.847Z,10.25
2019-04-23T04:54:12.354Z,10.61
2019-04-23T04:56:45.046Z,10.75
2019-04-23T05:04:30.636Z,10.93
2019-04-23T05:09:57.271Z,10.84
2019-04-23T05:14:52.639Z,11.51
2019-04-23T05:17:57.223Z,11.54
2019-04-23T05:20:19.990Z,11.85
2019-04-23T05:25:25.446Z,11.43
2019-04-23T05:28:08.127Z,12.09
2019-04-23T05:30:44.506Z,11.89
2019-04-23T05:33:18.549Z,12.37
2019-04-23T05:38:39.012Z,12.03
2019-04-23T05:41:10.063Z,12.39
2019-04-23T05:43:43.605Z,11.92
2019-04-23T05:46:17.571Z,11.98
2019-04-23T05:48:49.034Z,12.30
2019-04-23T05:56:36.871Z,12.57
2019-04-23T06:09:25.155Z,13.39
2019-04-23T06:12:00.118Z,13.73
2019-04-23T06:14:44.494Z,13.98
2019-04-23T06:17:15.228Z,13.79
2019-04-23T06:19:49.766Z,13.14
2019-04-23T06:22:30.025Z,13.05
2019-04-23T06:25:04.185Z,13.35
2019-04-23T06:27:41.481Z,13.40
2019-04-23T06:30:34.316Z,13.24
2019-04-23T06:32:46.441Z,13.22
2019-04-23T06:35:24.160Z,13.01
2019-04-23T06:40:38.863Z,12.95
2019-04-23T06:45:46.002Z,13.19
2019-04-23T06:51:07.523Z,13.77
2019-04-23T06:53:29.283Z,13.56
2019-04-23T06:56:18.688Z,13.26
2019-04-23T06:58:43.200Z,13.08
2019-04-23T07:01:19.120Z,13.73
2019-04-23T07:04:02.983Z,14.60
2019-04-23T07:06:38.440Z,14.42
2019-04-23T07:09:10.736Z,14.72
2019-04-23T07:11:39.396Z,14.43
2019-04-23T07:14:12.025Z,14.41
2019-04-23T07:16:52.634Z,14.12
2019-04-23T07:19:31.770Z,14.11
2019-04-23T07:22:08.110Z,14.23
2019-04-23T07:24:36.587Z,13.87
2019-04-23T07:27:14.849Z,13.76
2019-04-23T07:32:28.934Z,14.04
2019-04-23T07:35:08.988Z,13.85
2019-04-23T07:37:56.873Z,13.61
2019-04-23T07:43:28.256Z,13.79
2019-04-23T07:46:16.834Z,13.73
2019-04-23T07:48:43.792Z,13.80
2019-04-23T07:51:22.909Z,13.80
2019-04-23T07:54:03.773Z,13.94
2019-04-23T07:56:34.242Z,14.01
2019-04-23T07:59:08.857Z,14.01
2019-04-23T08:01:42.257Z,14.34
2019-04-23T08:04:18.327Z,14.50
2019-04-23T08:06:52.620Z,14.75
2019-04-23T08:09:27.671Z,14.69
2019-04-23T08:12:02.645Z,14.83
2019-04-23T08:14:43.914Z,14.05
2019-04-23T08:17:12.594Z,14.09
2019-04-23T08:19:56.352Z,14.49
2019-04-23T08:22:26.970Z,14.89
2019-04-23T08:25:29.934Z,14.49
2019-04-23T08:27:55.894Z,14.47
2019-04-23T08:30:32.249Z,14.94
2019-04-23T08:33:24.485Z,14.76
2019-04-23T08:35:54.303Z,14.52
2019-04-23T08:38:26.593Z,14.77
2019-04-23T08:41:02.629Z,14.41
2019-04-23T08:46:43.370Z,14.88
2019-04-23T08:49:10.821Z,14.44
2019-04-23T08:51:53.334Z,14.81
2019-04-23T08:54:27.953Z,14.68
2019-04-23T09:02:24.216Z,14.79
2019-04-23T09:04:50.273Z,15.19
2019-04-23T09:07:33.632Z,14.78
2019-04-23T09:10:02.480Z,15.14
2019-04-23T09:12:32.106Z,15.21
2019-04-23T09:15:13.488Z,15.43
2019-04-23T09:17:42.872Z,15.81
2019-04-23T09:22:49.978Z,15.50
2019-04-23T09:25:28.440Z,15.44
2019-04-23T09:28:01.860Z,15.79
2019-04-23T09:30:32.273Z,15.95
2019-04-23T09:36:37.832Z,15.71
2019-04-23T09:39:12.825Z,15.86
2019-04-23T09:41:51.790Z,15.89
2019-04-23T09:45:03.740Z,16.52
2019-04-23T09:47:53.500Z,17.48
2019-04-23T09:50:24.085Z,18.07
2019-04-23T09:53:57.781Z,17.65
2019-04-23T09:58:07.939Z,17.52
2019-04-23T10:00:44.885Z,17.18
2019-04-23T10:03:16.662Z,17.39
2019-04-23T10:05:45.088Z,17.44
2019-04-23T10:08:16.212Z,17.58
2019-04-23T10:10:44.962Z,18.11
2019-04-23T10:13:19.980Z,17.72
2019-04-23T10:15:53.922Z,17.20
2019-04-23T10:18:29.128Z,17.08
2019-04-23T10:21:03.360Z,17.48
2019-04-23T10:23:37.172Z,17.94
2019-04-23T10:26:12.136Z,17.96
2019-04-23T10:28:49.803Z,18.15
2019-04-23T10:31:23.079Z,18.11
2019-04-23T10:33:57.982Z,17.97
2019-04-23T10:36:38.264Z,18.23
2019-04-23T10:39:14.653Z,18.55
2019-04-23T10:41:46.393Z,18.32
2019-04-23T10:44:35.354Z,18.76
2019-04-23T10:47:54.416Z,18.74
2019-04-23T10:58:35.134Z,18.57
2019-04-23T11:04:02.825Z,18.10
2019-04-23T11:06:25.321Z,18.94
2019-04-23T11:09:07.908Z,18.74
2019-04-23T11:11:34.420Z,18.41
2019-04-23T11:14:23.071Z,18.48
2019-04-23T11:16:57.300Z,18.74
2019-04-23T11:19:25.595Z,18.57
2019-04-23T11:22:04.254Z,18.52
2019-04-23T11:24:41.654Z,19.04
2019-04-23T11:27:20.793Z,19.27
2019-04-23T11:32:44.771Z,18.53
2019-04-23T11:35:18.079Z,19.79
2019-04-23T11:37:43.421Z,19.30
2019-04-23T11:40:13.683Z,19.07
2019-04-23T11:42:42.719Z,18.95
2019-04-23T11:45:30.610Z,19.46
2019-04-23T11:53:00.287Z,20.00
2019-04-23T11:58:30.524Z,19.29
2019-04-23T12:01:28.213Z,19.85
2019-04-23T12:04:13.989Z,19.64
2019-04-23T12:06:49.017Z,19.78
2019-04-23T12:09:38.214Z,19.82
2019-04-23T12:12:03.827Z,20.01
2019-04-23T12:22:30.080Z,19.33
2019-04-23T12:25:17.663Z,20.23
2019-04-23T12:30:18.976Z,20.12
2019-04-23T12:32:57.188Z,19.75
2019-04-23T12:35:33.973Z,19.53
2019-04-23T12:38:07.402Z,18.91
2019-04-23T12:40:40.532Z,19.15
2019-04-23T12:43:18.308Z,19.94
2019-04-23T12:45:47.041Z,19.47
2019-04-23T12:48:42.110Z,19.68
2019-04-23T12:51:14.236Z,19.81
2019-04-23T12:53:37.888Z,19.17
2019-04-23T12:56:17.006Z,19.83
2019-04-23T12:58:38.361Z,20.39
2019-04-23T13:01:22.852Z,20.64
2019-04-23T13:03:50.536Z,20.02
2019-04-23T13:06:28.339Z,20.04
2019-04-23T13:09:23.177Z,20.08
2019-04-23T13:11:49.691Z,19.95
2019-04-23T13:14:26.463Z,19.69
2019-04-23T13:17:27.084Z,19.86
2019-04-23T13:22:21.469Z,19.81
2019-04-23T13:27:54.254Z,20.08
2019-04-23T13:30:37.465Z,20.64
2019-04-23T13:33:08.120Z,20.25
2019-04-23T13:36:03.174Z,19.54
2019-04-23T13:43:37.973Z,20.83
2019-04-23T13:48:30.100Z,20.79
2019-04-23T13:51:21.287Z,20.68
2019-04-23T13:53:55.748Z,20.13
2019-04-23T14:01:58.011Z,20.18
2019-04-23T14:04:32.834Z,20.01
2019-04-23T14:06:57.882Z,20.53
2019-04-23T14:09:45.484Z,20.29
2019-04-23T14:12:09.155Z,20.15
2019-04-23T14:15:04.479Z,20.54
2019-04-23T14:20:05.010Z,20.24
2019-04-23T14:25:13.855Z,20.66
2019-04-23T14:27:51.601Z,20.53
2019-04-23T14:33:00.951Z,20.14
2019-04-23T14:35:33.176Z,20.63
2019-04-23T14:40:54.124Z,20.77
2019-04-23T14:43:34.897Z,20.49
2019-04-23T14:48:33.026Z,20.40
2019-04-23T14:51:13.372Z,20.49
2019-04-23T14:53:46.500Z,20.58
2019-04-23T14:56:24.034Z,20.63
2019-04-23T15:01:36.177Z,20.68
2019-04-23T15:04:04.849Z,20.47
2019-04-23T15:07:04.128Z,20.27
2019-04-23T15:09:30.934Z,20.40
2019-04-23T15:12:11.786Z,20.41
2019-04-23T15:14:48.197Z,20.04
2019-04-23T15:17:12.825Z,20.05
2019-04-23T15:19:57.973Z,20.23
2019-04-23T15:22:32.453Z,20.09
2019-04-23T15:25:13.772Z,20.01
2019-04-23T15:30:03.690Z,20.06
2019-04-23T15:32:53.858Z,20.26
2019-04-23T15:35:33.218Z,20.02
2019-04-23T15:38:18.547Z,19.79
2019-04-23T15:40:32.983Z,19.95
2019-04-23T15:43:09.061Z,19.96
2019-04-23T15:45:44.537Z,19.86
2019-04-23T15:48:26.569Z,19.77
2019-04-23T15:51:04.647Z,19.82
2019-04-23T15:53:24.914Z,19.74
2019-04-23T15:56:24.755Z,19.62
2019-04-23T15:58:56.168Z,19.72
2019-04-23T16:01:29.042Z,19.52
2019-04-23T16:03:29.307Z,19.67
2019-04-23T16:06:02.661Z,19.64
2019-04-23T16:11:48.005Z,19.58
2019-04-23T16:19:56.766Z,19.52
2019-04-23T16:22:25.135Z,19.55
2019-04-23T16:27:31.692Z,19.32
2019-04-23T16:30:17.804Z,19.33
2019-04-23T16:33:08.752Z,19.32
2019-04-23T16:36:11.417Z,19.27
2019-04-23T16:38:54.503Z,19.27
2019-04-23T16:43:57.150Z,19.35
2019-04-23T16:46:50.317Z,19.26
2019-04-23T16:49:15.225Z,19.26
2019-04-23T16:51:39.729Z,19.18
2019-04-23T16:57:13.190Z,19.10
2019-04-23T16:59:34.873Z,19.06
2019-04-23T17:02:12.312Z,19.02
2019-04-23T17:04:38.876Z,18.97
2019-04-23T17:07:13.222Z,18.93
2019-04-23T17:10:00.328Z,18.86
2019-04-23T17:12:17.593Z,18.84
2019-04-23T17:15:17.891Z,18.81
2019-04-23T17:17:33.964Z,18.73
2019-04-23T17:20:25.249Z,18.67
2019-04-23T17:22:47.578Z,18.68
2019-04-23T17:25:26.456Z,18.71
2019-04-23T17:28:05.630Z,18.64
2019-04-23T17:30:33.680Z,18.57
2019-04-23T17:33:19.104Z,18.53
2019-04-23T17:38:50.992Z,18.46
2019-04-23T17:41:50.181Z,18.41
2019-04-23T17:44:37.112Z,18.34
2019-04-23T17:46:54.064Z,18.28
2019-04-23T17:49:29.963Z,18.24
2019-04-23T17:52:05.404Z,18.15
2019-04-23T17:54:43.382Z,18.19
2019-04-23T17:57:15.642Z,18.14
2019-04-23T18:00:08.684Z,18.06
2019-04-23T18:02:49.921Z,17.97
2019-04-23T18:05:06.267Z,17.87
2019-04-23T18:10:29.751Z,17.83
2019-04-23T18:12:51.811Z,17.74
2019-04-23T18:15:35.386Z,17.71
2019-04-23T18:21:09.351Z,17.61
2019-04-23T18:23:32.094Z,17.66
2019-04-23T18:26:12.331Z,17.58
2019-04-23T18:29:04.536Z,17.51
2019-04-23T18:31:33.297Z,17.54
2019-04-23T18:34:16.355Z,17.61
2019-04-23T18:36:45.697Z,17.49
2019-04-23T18:39:23.842Z,17.60
2019-04-23T18:42:11.621Z,17.49
2019-04-23T18:44:38.316Z,17.42
2019-04-23T18:47:09.067Z,17.38
2019-04-23T18:52:29.480Z,17.31
2019-04-23T18:54:56.413Z,17.31
2019-04-23T18:57:27.385Z,17.16
2019-04-23T19:00:10.937Z,16.93
2019-04-23T19:03:04.145Z,16.77
2019-04-23T19:05:49.177Z,16.75
2019-04-23T19:08:51.477Z,16.68
2019-04-23T19:11:31.608Z,16.54
2019-04-23T19:13:47.751Z,16.47
2019-04-23T19:16:37.382Z,16.34
2019-04-23T19:19:01.403Z,16.20
2019-04-23T19:22:07.081Z,16.07
2019-04-23T19:24:12.655Z,16.06
2019-04-23T19:29:37.263Z,15.97
2019-04-23T19:31:58.295Z,15.96
2019-04-23T19:37:34.856Z,15.88
2019-04-23T19:42:17.639Z,15.77
2019-04-23T19:44:54.119Z,15.69
2019-04-23T19:47:45.887Z,15.68
2019-04-23T19:50:13.385Z,15.61
2019-04-23T19:53:04.485Z,15.57
2019-04-23T19:55:19.490Z,15.60
2019-04-23T19:58:08.539Z,15.57
2019-04-23T20:00:46.015Z,15.51
2019-04-23T20:03:26.401Z,15.41
2019-04-23T20:05:49.957Z,15.42
2019-04-23T20:08:34.005Z,15.46
2019-04-23T20:10:54.402Z,15.41
2019-04-23T20:13:40.832Z,15.29
2019-04-23T20:16:10.968Z,15.32
2019-04-23T20:24:04.670Z,15.11
2019-04-23T20:31:44.984Z,15.18
2019-04-23T20:32:09.092Z,15.19
2019-04-23T20:34:49.686Z,15.04
2019-04-23T20:37:03.242Z,15.02
2019-04-23T20:39:45.512Z,15.05
2019-04-23T20:47:22.998Z,15.13
2019-04-23T20:49:51.846Z,15.17
2019-04-23T20:52:33.892Z,15.19
2019-04-23T20:55:20.246Z,15.16
2019-04-23T20:58:03.619Z,15.16
2019-04-23T21:00:59.170Z,15.12
2019-04-23T21:09:10.172Z,14.93
2019-04-23T21:11:25.039Z,14.94
2019-04-23T21:14:24.049Z,14.96
2019-04-23T21:16:37.474Z,14.97
2019-04-23T21:19:13.769Z,14.90
2019-04-23T21:22:13.235Z,14.92
2019-04-23T21:24:47.369Z,14.86
2019-04-23T21:27:27.648Z,14.86
2019-04-23T21:30:01.915Z,14.95
2019-04-23T21:32:44.177Z,15.00
2019-04-23T21:41:09.205Z,14.99
2019-04-23T21:44:00.023Z,14.94
2019-04-23T21:46:15.352Z,14.90
2019-04-23T21:59:10.165Z,15.04
2019-04-23T22:01:59.309Z,14.97
2019-04-23T22:04:40.066Z,14.95
2019-04-23T22:06:52.939Z,14.92
2019-04-23T22:09:55.517Z,14.94
2019-04-23T22:12:08.764Z,14.88
2019-04-23T22:14:47.511Z,14.92
2019-04-23T22:17:27.216Z,14.89
2019-04-23T22:22:41.895Z,14.88
2019-04-23T22:25:22.065Z,14.87
2019-04-23T22:27:49.691Z,14.84
2019-04-23T22:30:24.684Z,14.85
2019-04-23T22:33:07.182Z,14.82
2019-04-23T22:35:35.942Z,14.85
2019-04-23T22:38:25.931Z,14.86
2019-04-23T22:40:41.520Z,14.82
2019-04-23T22:43:20.569Z,14.82
2019-04-23T22:46:02.906Z,14.76
2019-04-23T22:48:37.085Z,14.76
2019-04-23T22:51:11.024Z,14.77
2019-04-23T22:53:55.329Z,14.77
2019-04-23T22:56:20.870Z,14.81
2019-04-23T22:59:01.515Z,14.78
2019-04-23T23:01:42.254Z,14.75
2019-04-23T23:09:25.819Z,14.75
2019-04-23T23:14:47.234Z,14.66
2019-04-23T23:17:06.811Z,14.63
2019-04-23T23:22:20.086Z,14.62
2019-04-23T23:24:55.920Z,14.62
2019-04-23T23:27:26.698Z,14.60
2019-04-23T23:30:04.958Z,14.58
2019-04-23T23:32:41.147Z,14.55
2019-04-23T23:35:24.245Z,14.56
2019-04-23T23:37:56.382Z,14.55
2019-04-23T23:43:15.313Z,14.55
2019-04-23T23:45:35.251Z,14.52
2019-04-23T23:48:08.918Z,14.51
2019-04-23T23:53:24.890Z,14.51
2019-04-23T23:56:11.170Z,14.50
